Time;durP1;ratioP1;P1;durP2;ratioP2;P2;SDS_P1;SDS_P2;PMS_P1;PMS_P2;Temp;Humidity;BMP_temperature;BMP_pressure;BME280_temperature;BME280_humidity;BME280_pressure;Samples;Min_cycle;Max_cycle;Signal;HPM_P1;HPM_P2
2022/05/08 00:00:05;;;;;;;27.33;18.90;;;;;;;;;;5135375;27;20107;-82
2022/05/08 00:02:31;;;;;;;23.98;19.45;;;;;;;;;;5139532;27;20057;-82
2022/05/08 00:04:57;;;;;;;23.42;19.15;;;;;;;;;;5139067;27;20019;-81
2022/05/08 00:07:24;;;;;;;24.50;19.13;;;;;;;;;;5139672;27;20092;-80
2022/05/08 00:09:50;;;;;;;22.65;18.50;;;;;;;;;;5134016;27;20031;-82
2022/05/08 00:12:16;;;;;;;23.73;19.27;;;;;;;;;;5141027;27;20066;-79
2022/05/08 00:14:43;;;;;;;24.73;20.05;;;;;;;;;;5158549;27;20008;-79
2022/05/08 00:17:11;;;;;;;24.10;19.08;;;;;;;;;;5159527;27;20045;-79
2022/05/08 00:19:41;;;;;;;23.63;17.52;;;;;;;;;;5158309;27;20072;-79
2022/05/08 00:22:07;;;;;;;28.77;22.95;;;;;;;;;;5159335;27;20024;-79
2022/05/08 00:24:36;;;;;;;32.97;24.45;;;;;;;;;;5146218;27;20082;-81
2022/05/08 00:27:02;;;;;;;35.42;27.30;;;;;;;;;;5139348;27;20130;-82
2022/05/08 00:29:28;;;;;;;32.47;26.10;;;;;;;;;;5138431;27;20096;-82
2022/05/08 00:31:54;;;;;;;31.20;24.25;;;;;;;;;;5137785;27;20098;-82
2022/05/08 00:34:21;;;;;;;28.08;22.02;;;;;;;;;;5136633;27;20015;-82
2022/05/08 00:36:47;;;;;;;28.20;20.77;;;;;;;;;;5118071;27;20026;-82
2022/05/08 00:39:13;;;;;;;22.50;18.30;;;;;;;;;;5117666;28;20012;-81
2022/05/08 00:41:39;;;;;;;24.95;19.80;;;;;;;;;;5137804;27;20072;-82
2022/05/08 00:44:05;;;;;;;24.67;19.02;;;;;;;;;;5119667;27;20054;-79
2022/05/08 00:46:31;;;;;;;26.40;18.75;;;;;;;;;;5120232;27;20424;-81
2022/05/08 00:48:58;;;;;;;24.58;18.23;;;;;;;;;;5129945;27;20071;-82
2022/05/08 00:51:24;;;;;;;24.52;19.92;;;;;;;;;;5137669;27;20015;-82
2022/05/08 00:53:51;;;;;;;24.13;20.00;;;;;;;;;;5136094;27;20052;-81
2022/05/08 00:56:18;;;;;;;24.00;20.58;;;;;;;;;;5138329;27;20030;-81
2022/05/08 00:58:46;;;;;;;24.77;19.90;;;;;;;;;;5134612;27;20134;-82
2022/05/08 01:01:13;;;;;;;24.75;19.15;;;;;;;;;;5137419;27;20057;-81
2022/05/08 01:03:40;;;;;;;25.13;19.00;;;;;;;;;;5137319;27;20109;-82
2022/05/08 01:06:09;;;;;;;23.73;18.63;;;;;;;;;;5121863;27;20027;-81
2022/05/08 01:08:37;;;;;;;23.42;19.40;;;;;;;;;;5117556;28;20073;-81
2022/05/08 01:11:03;;;;;;;23.38;18.88;;;;;;;;;;5124873;27;20555;-82
2022/05/08 01:13:30;;;;;;;24.60;19.50;;;;;;;;;;5137599;27;20034;-82
2022/05/08 01:15:56;;;;;;;25.77;20.50;;;;;;;;;;5135218;27;20085;-82
2022/05/08 01:18:22;;;;;;;25.83;18.95;;;;;;;;;;5136256;27;20096;-81
2022/05/08 01:20:49;;;;;;;23.42;19.13;;;;;;;;;;5121615;27;20024;-82
2022/05/08 01:23:15;;;;;;;23.38;19.60;;;;;;;;;;5124104;27;20044;-82
2022/05/08 01:26:07;;;;;;;26.20;20.45;;;;;;;;;;5119032;27;20023;-82
2022/05/08 01:28:33;;;;;;;25.77;19.65;;;;;;;;;;5148052;27;20057;-81
2022/05/08 01:30:59;;;;;;;25.95;20.45;;;;;;;;;;5117997;28;20024;-82
2022/05/08 01:33:26;;;;;;;24.95;19.25;;;;;;;;;;5117450;28;20028;-81
2022/05/08 01:35:52;;;;;;;26.48;20.52;;;;;;;;;;5117320;28;20082;-82
2022/05/08 01:38:19;;;;;;;25.83;21.17;;;;;;;;;;5117561;28;20487;-81
2022/05/08 01:40:45;;;;;;;27.20;20.98;;;;;;;;;;5117310;28;20028;-81
2022/05/08 01:43:12;;;;;;;25.90;20.17;;;;;;;;;;5117282;28;20513;-82
2022/05/08 01:45:38;;;;;;;26.35;21.00;;;;;;;;;;5118155;28;20027;-81
2022/05/08 01:48:23;;;;;;;26.85;20.95;;;;;;;;;;5117515;28;20045;-81
2022/05/08 01:50:50;;;;;;;25.45;19.27;;;;;;;;;;5118522;28;20020;-81
2022/05/08 01:53:18;;;;;;;24.77;20.08;;;;;;;;;;5117446;28;20024;-81
2022/05/08 01:55:44;;;;;;;26.30;21.13;;;;;;;;;;5119634;28;20045;-82
2022/05/08 01:58:10;;;;;;;24.33;19.73;;;;;;;;;;5138373;27;20031;-82
2022/05/08 02:00:36;;;;;;;24.65;20.60;;;;;;;;;;5140079;27;20398;-81
2022/05/08 02:03:03;;;;;;;25.13;20.15;;;;;;;;;;5139262;27;20027;-82
2022/05/08 02:05:30;;;;;;;27.75;21.42;;;;;;;;;;5141922;27;20417;-81
2022/05/08 02:07:56;;;;;;;25.65;20.63;;;;;;;;;;5139189;27;20083;-82
2022/05/08 02:10:23;;;;;;;25.80;20.23;;;;;;;;;;5121490;28;20390;-82
2022/05/08 02:12:49;;;;;;;29.08;21.45;;;;;;;;;;5135264;27;20039;-80
2022/05/08 02:15:15;;;;;;;26.05;20.38;;;;;;;;;;5133077;27;20019;-82
2022/05/08 02:17:41;;;;;;;27.45;21.20;;;;;;;;;;5141340;27;20023;-81
2022/05/08 02:20:08;;;;;;;26.48;20.77;;;;;;;;;;5125182;27;20057;-82
2022/05/08 02:22:35;;;;;;;30.30;22.45;;;;;;;;;;5121499;27;20091;-82
2022/05/08 02:25:01;;;;;;;26.33;20.77;;;;;;;;;;5120483;27;20024;-81
2022/05/08 02:27:34;;;;;;;26.73;20.75;;;;;;;;;;5126328;27;20049;-81
2022/05/08 02:30:00;;;;;;;24.45;20.15;;;;;;;;;;5140224;27;20019;-82
2022/05/08 02:32:26;;;;;;;27.88;21.40;;;;;;;;;;5141416;27;20696;-82
2022/05/08 02:34:52;;;;;;;28.05;22.35;;;;;;;;;;5122156;27;20020;-82
2022/05/08 02:37:18;;;;;;;29.23;22.35;;;;;;;;;;5120838;28;20035;-82
2022/05/08 02:39:44;;;;;;;29.08;22.38;;;;;;;;;;5120349;27;20419;-82
2022/05/08 02:42:12;;;;;;;29.75;22.50;;;;;;;;;;5120172;28;20040;-82
2022/05/08 02:44:38;;;;;;;30.95;23.33;;;;;;;;;;5119144;27;20041;-82
2022/05/08 02:47:04;;;;;;;32.47;24.92;;;;;;;;;;5122000;27;20023;-82
2022/05/08 02:49:30;;;;;;;33.72;25.83;;;;;;;;;;5120424;27;20051;-81
2022/05/08 02:51:56;;;;;;;34.63;26.58;;;;;;;;;;5121156;27;20069;-82
2022/05/08 02:54:22;;;;;;;35.03;27.02;;;;;;;;;;5119325;28;20058;-82
2022/05/08 02:59:33;;;;;;;36.22;26.70;;;;;;;;;;5120490;27;20058;-81
2022/05/08 03:01:59;;;;;;;36.80;27.58;;;;;;;;;;5130016;27;20012;-82
2022/05/08 03:04:25;;;;;;;36.78;27.55;;;;;;;;;;5121874;27;20027;-80
2022/05/08 03:06:51;;;;;;;37.30;27.42;;;;;;;;;;5140642;27;20401;-82
2022/05/08 03:09:17;;;;;;;35.03;27.10;;;;;;;;;;5140063;27;20015;-81
2022/05/08 03:11:43;;;;;;;36.63;27.90;;;;;;;;;;5129401;27;20050;-82
2022/05/08 03:14:09;;;;;;;37.55;28.92;;;;;;;;;;5119991;27;20055;-82
2022/05/08 03:16:36;;;;;;;39.47;28.65;;;;;;;;;;5119877;28;20012;-82
2022/05/08 03:19:02;;;;;;;37.45;28.35;;;;;;;;;;5121106;27;20061;-80
2022/05/08 03:21:28;;;;;;;40.53;29.30;;;;;;;;;;5119167;28;20023;-82
2022/05/08 03:23:54;;;;;;;40.55;29.35;;;;;;;;;;5119510;27;20129;-82
2022/05/08 03:26:20;;;;;;;39.53;28.15;;;;;;;;;;5119966;28;20035;-81
2022/05/08 03:28:47;;;;;;;40.88;29.60;;;;;;;;;;5119593;28;20387;-81
2022/05/08 03:31:13;;;;;;;40.78;28.67;;;;;;;;;;5134304;27;20054;-82
2022/05/08 03:33:39;;;;;;;41.65;30.27;;;;;;;;;;5135873;27;20438;-82
2022/05/08 03:36:06;;;;;;;39.58;28.95;;;;;;;;;;5140230;27;20076;-82
2022/05/08 03:38:33;;;;;;;44.00;30.40;;;;;;;;;;5140691;27;20019;-82
2022/05/08 03:41:01;;;;;;;41.92;30.30;;;;;;;;;;5140133;27;20026;-82
2022/05/08 03:43:28;;;;;;;41.50;29.45;;;;;;;;;;5124176;27;20027;-82
2022/05/08 03:45:54;;;;;;;39.70;29.67;;;;;;;;;;5138811;27;20038;-82
2022/05/08 03:48:20;;;;;;;40.55;29.58;;;;;;;;;;5131185;27;20028;-82
2022/05/08 03:50:47;;;;;;;41.38;30.77;;;;;;;;;;5118746;28;20030;-82
2022/05/08 03:53:13;;;;;;;39.03;29.88;;;;;;;;;;5134669;27;20543;-80
2022/05/08 03:55:39;;;;;;;39.05;29.45;;;;;;;;;;5132700;27;20026;-81
2022/05/08 03:58:05;;;;;;;42.42;31.00;;;;;;;;;;5138933;27;20035;-81
2022/05/08 04:00:31;;;;;;;40.83;29.98;;;;;;;;;;5117485;28;20067;-82
2022/05/08 04:02:59;;;;;;;40.30;28.63;;;;;;;;;;5127712;27;20015;-82
2022/05/08 04:05:25;;;;;;;41.45;28.92;;;;;;;;;;5133681;27;20110;-81
2022/05/08 04:07:51;;;;;;;40.92;30.02;;;;;;;;;;5136516;27;20027;-82
2022/05/08 04:10:17;;;;;;;41.60;29.85;;;;;;;;;;5139049;27;20019;-82
2022/05/08 04:12:43;;;;;;;37.92;27.48;;;;;;;;;;5138445;27;20104;-82
2022/05/08 04:17:54;;;;;;;38.55;29.02;;;;;;;;;;5124833;27;20137;-81
2022/05/08 04:20:20;;;;;;;39.78;28.95;;;;;;;;;;5119087;27;20084;-81
2022/05/08 04:25:31;;;;;;;40.83;28.58;;;;;;;;;;5117884;27;20061;-82
2022/05/08 04:27:57;;;;;;;40.25;29.48;;;;;;;;;;5117401;28;20039;-82
2022/05/08 04:30:23;;;;;;;35.53;27.83;;;;;;;;;;5116913;27;20427;-81
2022/05/08 04:32:49;;;;;;;36.92;27.83;;;;;;;;;;5125960;27;20431;-81
2022/05/08 04:35:15;;;;;;;36.72;27.38;;;;;;;;;;5135588;27;20077;-81
2022/05/08 04:37:41;;;;;;;38.42;27.38;;;;;;;;;;5133474;27;20391;-81
2022/05/08 04:40:08;;;;;;;37.50;27.58;;;;;;;;;;5126952;27;20036;-82
2022/05/08 04:42:34;;;;;;;35.17;27.52;;;;;;;;;;5134488;27;20043;-81
2022/05/08 04:45:00;;;;;;;36.40;27.15;;;;;;;;;;5127639;27;20110;-82
2022/05/08 04:47:28;;;;;;;35.67;26.83;;;;;;;;;;5120078;27;20041;-81
2022/05/08 04:49:54;;;;;;;35.28;26.30;;;;;;;;;;5124480;27;20019;-81
2022/05/08 04:52:20;;;;;;;34.33;25.90;;;;;;;;;;5126869;27;20023;-81
2022/05/08 04:54:46;;;;;;;34.47;26.42;;;;;;;;;;5118594;27;20414;-81
2022/05/08 04:57:12;;;;;;;36.50;27.00;;;;;;;;;;5121824;27;20031;-81
2022/05/08 04:59:39;;;;;;;34.33;25.48;;;;;;;;;;5120501;27;20436;-81
2022/05/08 05:02:08;;;;;;;35.20;25.20;;;;;;;;;;5121187;27;20023;-81
2022/05/08 05:04:34;;;;;;;34.72;25.40;;;;;;;;;;5127360;27;20062;-81
2022/05/08 05:07:00;;;;;;;34.28;25.45;;;;;;;;;;5123481;27;20072;-80
2022/05/08 05:09:26;;;;;;;32.92;24.95;;;;;;;;;;5135296;27;20398;-81
2022/05/08 05:11:52;;;;;;;34.63;26.17;;;;;;;;;;5123395;27;20035;-81
2022/05/08 05:14:18;;;;;;;33.47;26.13;;;;;;;;;;5114930;28;20016;-81
2022/05/08 05:16:44;;;;;;;31.45;24.38;;;;;;;;;;5119982;27;20128;-81
2022/05/08 05:19:11;;;;;;;32.50;24.30;;;;;;;;;;5134080;27;20034;-81
2022/05/08 05:21:37;;;;;;;32.72;25.35;;;;;;;;;;5133022;27;20023;-81
2022/05/08 05:24:03;;;;;;;32.50;24.45;;;;;;;;;;5129771;27;20019;-81
2022/05/08 05:26:29;;;;;;;30.30;23.50;;;;;;;;;;5114418;28;20061;-81
2022/05/08 05:28:55;;;;;;;32.03;24.88;;;;;;;;;;5115738;28;20449;-81
2022/05/08 05:31:21;;;;;;;32.58;24.27;;;;;;;;;;5119833;28;20049;-82
2022/05/08 05:33:47;;;;;;;35.97;26.58;;;;;;;;;;5120040;27;20027;-81
2022/05/08 05:36:14;;;;;;;33.42;26.30;;;;;;;;;;5116288;28;20031;-81
2022/05/08 05:38:40;;;;;;;32.35;23.77;;;;;;;;;;5124980;28;20110;-81
2022/05/08 05:41:06;;;;;;;32.90;23.70;;;;;;;;;;5134652;27;20534;-81
2022/05/08 05:43:35;;;;;;;31.45;24.98;;;;;;;;;;5120467;27;20031;-80
2022/05/08 05:48:46;;;;;;;34.80;25.27;;;;;;;;;;5123108;28;20153;-80
2022/05/08 05:51:12;;;;;;;31.98;24.45;;;;;;;;;;5131945;28;20043;-80
2022/05/08 05:53:38;;;;;;;30.02;23.40;;;;;;;;;;5131227;28;20051;-81
2022/05/08 05:56:04;;;;;;;33.58;25.20;;;;;;;;;;5131410;28;20485;-80
2022/05/08 05:58:31;;;;;;;31.00;23.88;;;;;;;;;;5114947;28;20039;-81
2022/05/08 06:00:57;;;;;;;30.85;24.20;;;;;;;;;;5115051;28;20395;-81
2022/05/08 06:03:23;;;;;;;28.90;22.98;;;;;;;;;;5113403;28;20020;-81
2022/05/08 06:05:49;;;;;;;29.85;23.50;;;;;;;;;;5119306;28;20365;-81
2022/05/08 06:08:15;;;;;;;31.13;24.65;;;;;;;;;;5121085;28;20038;-81
2022/05/08 06:10:41;;;;;;;31.05;24.63;;;;;;;;;;5118668;28;20088;-80
2022/05/08 06:13:07;;;;;;;30.05;23.58;;;;;;;;;;5121260;28;20046;-80
2022/05/08 06:15:33;;;;;;;31.90;23.25;;;;;;;;;;5122092;28;20463;-81
2022/05/08 06:17:59;;;;;;;32.08;23.67;;;;;;;;;;5114098;28;20055;-81
2022/05/08 06:20:26;;;;;;;27.90;22.90;;;;;;;;;;5122915;27;20043;-80
2022/05/08 06:22:52;;;;;;;28.17;23.08;;;;;;;;;;5124668;28;20046;-80
2022/05/08 06:25:18;;;;;;;29.88;21.77;;;;;;;;;;5122424;28;20042;-81
2022/05/08 06:27:44;;;;;;;27.20;21.48;;;;;;;;;;5117905;27;20054;-81
2022/05/08 06:30:11;;;;;;;30.02;22.50;;;;;;;;;;5139570;27;20023;-80
2022/05/08 06:32:37;;;;;;;28.17;21.95;;;;;;;;;;5122262;28;20028;-81
2022/05/08 06:35:03;;;;;;;29.42;22.48;;;;;;;;;;5126795;28;20405;-80
2022/05/08 06:37:29;;;;;;;28.05;22.30;;;;;;;;;;5129906;28;20297;-80
2022/05/08 06:39:55;;;;;;;28.30;22.33;;;;;;;;;;5115228;28;20085;-80
2022/05/08 06:42:21;;;;;;;29.67;22.52;;;;;;;;;;5113421;28;20114;-81
2022/05/08 06:44:47;;;;;;;29.40;21.85;;;;;;;;;;5115800;28;20047;-81
2022/05/08 06:47:13;;;;;;;28.08;23.02;;;;;;;;;;5127200;27;20367;-81
2022/05/08 06:49:39;;;;;;;26.25;21.60;;;;;;;;;;5126562;27;20057;-81
2022/05/08 06:52:05;;;;;;;33.78;23.88;;;;;;;;;;5124065;27;20023;-81
2022/05/08 06:54:31;;;;;;;29.05;23.80;;;;;;;;;;5118894;27;20024;-81
2022/05/08 06:56:59;;;;;;;28.45;22.13;;;;;;;;;;5116709;28;20391;-79
2022/05/08 07:02:11;;;;;;;28.52;22.83;;;;;;;;;;5118813;27;20459;-79
2022/05/08 07:04:37;;;;;;;29.55;23.42;;;;;;;;;;5117757;27;20110;-79
2022/05/08 07:07:04;;;;;;;29.80;24.27;;;;;;;;;;5117398;27;20031;-79
2022/05/08 07:09:30;;;;;;;27.77;22.33;;;;;;;;;;5132744;27;20034;-79
2022/05/08 07:11:56;;;;;;;29.42;23.45;;;;;;;;;;5133512;27;20039;-79
2022/05/08 07:14:22;;;;;;;27.45;22.52;;;;;;;;;;5137469;27;20023;-79
2022/05/08 07:16:48;;;;;;;28.65;23.70;;;;;;;;;;5126001;27;20019;-79
2022/05/08 07:19:14;;;;;;;28.73;22.15;;;;;;;;;;5126209;27;20027;-79
2022/05/08 07:21:40;;;;;;;30.02;23.85;;;;;;;;;;5115668;27;20030;-79
2022/05/08 07:24:06;;;;;;;31.65;25.17;;;;;;;;;;5116721;28;20025;-79
2022/05/08 07:26:32;;;;;;;29.42;23.88;;;;;;;;;;5117720;27;20107;-79
2022/05/08 07:28:58;;;;;;;31.38;24.73;;;;;;;;;;5129211;27;20425;-79
2022/05/08 07:31:25;;;;;;;30.23;23.55;;;;;;;;;;5123797;27;20023;-79
2022/05/08 07:36:35;;;;;;;31.05;23.80;;;;;;;;;;5119100;27;20031;-80
2022/05/08 07:39:01;;;;;;;29.73;22.75;;;;;;;;;;5116774;27;20028;-80
2022/05/08 07:41:28;;;;;;;28.23;22.65;;;;;;;;;;5130161;27;20027;-79
2022/05/08 07:43:54;;;;;;;28.85;23.70;;;;;;;;;;5128814;27;20026;-80
2022/05/08 07:46:20;;;;;;;26.85;22.85;;;;;;;;;;5123346;27;20028;-79
2022/05/08 07:48:46;;;;;;;30.40;22.83;;;;;;;;;;5136754;27;20045;-79
2022/05/08 07:51:12;;;;;;;29.13;23.50;;;;;;;;;;5128928;27;20027;-82
2022/05/08 07:53:38;;;;;;;27.02;21.25;;;;;;;;;;5129946;27;20440;-79
2022/05/08 07:56:04;;;;;;;28.67;22.05;;;;;;;;;;5128408;27;20506;-79
2022/05/08 07:58:33;;;;;;;27.80;22.98;;;;;;;;;;5118250;27;20031;-79
2022/05/08 08:01:00;;;;;;;28.40;21.83;;;;;;;;;;5124552;27;20023;-80
2022/05/08 08:03:27;;;;;;;28.83;23.30;;;;;;;;;;5135014;27;20531;-79
2022/05/08 08:05:54;;;;;;;28.88;22.38;;;;;;;;;;5135687;27;20482;-80
2022/05/08 08:08:25;;;;;;;27.33;22.17;;;;;;;;;;5136094;27;20106;-80
2022/05/08 08:10:52;;;;;;;28.02;23.25;;;;;;;;;;5123511;27;20019;-80
2022/05/08 08:13:19;;;;;;;27.45;21.85;;;;;;;;;;5127773;27;20040;-80
2022/05/08 08:15:45;;;;;;;30.60;21.58;;;;;;;;;;5127000;27;20185;-80
2022/05/08 08:18:19;;;;;;;27.60;21.35;;;;;;;;;;5122995;27;20031;-80
2022/05/08 08:20:46;;;;;;;25.98;21.67;;;;;;;;;;5176794;22;20424;-80
2022/05/08 08:23:14;;;;;;;28.65;22.23;;;;;;;;;;5092142;28;20043;-79
2022/05/08 08:25:40;;;;;;;28.73;22.10;;;;;;;;;;5095829;28;20020;-80
2022/05/08 08:28:07;;;;;;;28.02;21.83;;;;;;;;;;5091169;28;20050;-79
2022/05/08 08:30:33;;;;;;;26.95;21.20;;;;;;;;;;5093920;28;20024;-80
2022/05/08 08:33:00;;;;;;;25.23;21.27;;;;;;;;;;5093751;28;20019;-80
2022/05/08 08:35:26;;;;;;;26.10;21.85;;;;;;;;;;5090031;28;20028;-81
2022/05/08 08:37:52;;;;;;;26.77;21.42;;;;;;;;;;5092501;28;20069;-81
2022/05/08 08:40:20;;;;;;;26.25;21.52;;;;;;;;;;5093688;28;20028;-80
2022/05/08 08:42:46;;;;;;;27.42;22.30;;;;;;;;;;5092891;28;20526;-81
2022/05/08 08:48:10;;;;;;;26.88;21.40;;;;;;;;;;5090497;28;20510;-81
2022/05/08 08:50:37;;;;;;;27.65;22.05;;;;;;;;;;5090545;28;20552;-81
2022/05/08 08:53:04;;;;;;;28.58;21.55;;;;;;;;;;5091881;28;20024;-80
2022/05/08 08:55:31;;;;;;;26.85;22.02;;;;;;;;;;5093999;28;20034;-80
2022/05/08 08:57:57;;;;;;;28.63;22.60;;;;;;;;;;5095836;28;20015;-82
2022/05/08 09:00:23;;;;;;;30.45;21.60;;;;;;;;;;5097323;28;20560;-81
2022/05/08 09:02:52;;;;;;;28.02;22.40;;;;;;;;;;5096049;28;20491;-82
2022/05/08 09:05:18;;;;;;;27.08;21.15;;;;;;;;;;5094145;28;20023;-81
2022/05/08 09:07:48;;;;;;;26.95;21.65;;;;;;;;;;5094494;28;20028;-81
2022/05/08 09:10:24;;;;;;;29.85;22.38;;;;;;;;;;5092640;28;20031;-81
2022/05/08 09:12:53;;;;;;;27.55;21.35;;;;;;;;;;5094020;28;20016;-81
2022/05/08 09:15:25;;;;;;;25.83;20.17;;;;;;;;;;5111302;28;20027;-80
2022/05/08 09:17:52;;;;;;;26.40;21.33;;;;;;;;;;5128707;28;20027;-79
2022/05/08 09:20:29;;;;;;;27.23;22.35;;;;;;;;;;5116317;28;20024;-80
2022/05/08 09:22:59;;;;;;;26.45;21.38;;;;;;;;;;5107928;28;20036;-79
2022/05/08 09:25:28;;;;;;;25.20;21.42;;;;;;;;;;5103539;28;20407;-79
2022/05/08 09:28:00;;;;;;;25.15;21.48;;;;;;;;;;5109984;28;20008;-80
2022/05/08 09:30:26;;;;;;;24.50;20.88;;;;;;;;;;5104555;28;20020;-81
2022/05/08 09:32:52;;;;;;;25.35;22.45;;;;;;;;;;5095017;28;20028;-81
2022/05/08 09:35:18;;;;;;;27.65;23.02;;;;;;;;;;5095330;28;20028;-81
2022/05/08 09:37:54;;;;;;;29.95;23.63;;;;;;;;;;5096676;28;20028;-81
2022/05/08 09:40:20;;;;;;;27.00;21.67;;;;;;;;;;5096833;28;20028;-81
2022/05/08 09:42:47;;;;;;;29.02;22.13;;;;;;;;;;5096276;28;20035;-82
2022/05/08 09:45:13;;;;;;;28.00;23.08;;;;;;;;;;5094289;28;20103;-81
2022/05/08 09:47:40;;;;;;;27.17;21.88;;;;;;;;;;5094688;28;20126;-81
2022/05/08 09:50:07;;;;;;;26.40;22.38;;;;;;;;;;5095736;28;20016;-82
2022/05/08 09:52:34;;;;;;;26.75;22.55;;;;;;;;;;5097637;28;20383;-81
2022/05/08 09:55:02;;;;;;;24.50;21.38;;;;;;;;;;5097785;28;20506;-81
2022/05/08 09:57:28;;;;;;;27.73;23.60;;;;;;;;;;5100843;28;20043;-80
2022/05/08 09:59:54;;;;;;;26.40;22.00;;;;;;;;;;5095628;28;20087;-81
2022/05/08 10:02:20;;;;;;;27.48;23.33;;;;;;;;;;5105692;28;20028;-79
2022/05/08 10:04:47;;;;;;;28.65;23.33;;;;;;;;;;5109755;28;20454;-81
2022/05/08 10:07:14;;;;;;;27.48;22.88;;;;;;;;;;5108885;28;20058;-80
2022/05/08 10:15:33;;;;;;;27.55;23.40;;;;;;;;;;5074800;28;20050;-81
2022/05/08 10:18:18;;;;;;;26.85;22.45;;;;;;;;;;5073285;28;20032;-81
2022/05/08 10:21:00;;;;;;;28.17;23.88;;;;;;;;;;5083679;28;20107;-80
2022/05/08 10:23:39;;;;;;;25.60;22.05;;;;;;;;;;5098184;28;20035;-80
2022/05/08 10:26:17;;;;;;;26.05;22.45;;;;;;;;;;5098317;28;20499;-81
2022/05/08 10:29:02;;;;;;;27.48;22.60;;;;;;;;;;5098731;28;20020;-81
2022/05/08 10:31:47;;;;;;;27.20;23.05;;;;;;;;;;5098587;28;20429;-81
2022/05/08 10:34:14;;;;;;;27.38;23.75;;;;;;;;;;5098252;28;20129;-81
2022/05/08 10:36:40;;;;;;;27.38;22.48;;;;;;;;;;5096932;28;20035;-81
2022/05/08 10:39:25;;;;;;;24.85;22.13;;;;;;;;;;5097741;28;20074;-80
2022/05/08 10:41:53;;;;;;;25.40;22.55;;;;;;;;;;5098735;28;20028;-80
2022/05/08 10:44:33;;;;;;;26.25;21.98;;;;;;;;;;5096443;28;20526;-80
2022/05/08 10:47:20;;;;;;;25.67;22.65;;;;;;;;;;5096398;28;20115;-81
2022/05/08 10:49:46;;;;;;;25.33;22.58;;;;;;;;;;5083412;28;20476;-81
2022/05/08 10:52:12;;;;;;;24.95;20.88;;;;;;;;;;5097900;28;20039;-81
2022/05/08 10:54:38;;;;;;;26.30;22.70;;;;;;;;;;5097041;28;20027;-80
2022/05/08 10:57:04;;;;;;;25.20;22.02;;;;;;;;;;5097968;28;20020;-81
2022/05/08 10:59:45;;;;;;;27.15;22.38;;;;;;;;;;5096498;28;20031;-81
2022/05/08 11:02:11;;;;;;;25.45;21.95;;;;;;;;;;5097544;28;20074;-80
2022/05/08 11:05:07;;;;;;;26.20;22.15;;;;;;;;;;5097787;28;20099;-81
2022/05/08 11:07:33;;;;;;;24.58;21.80;;;;;;;;;;4998458;28;20168;-81
2022/05/08 11:10:00;;;;;;;24.48;21.38;;;;;;;;;;4998725;28;20474;-81
2022/05/08 11:12:26;;;;;;;26.88;21.38;;;;;;;;;;5014975;28;20050;-82
2022/05/08 11:15:13;;;;;;;26.33;22.50;;;;;;;;;;5015463;28;20034;-81
2022/05/08 11:17:39;;;;;;;25.88;22.08;;;;;;;;;;5016192;28;20040;-80
2022/05/08 11:20:05;;;;;;;25.92;22.33;;;;;;;;;;5015507;28;20073;-81
2022/05/08 11:22:32;;;;;;;25.88;22.80;;;;;;;;;;5015111;28;20060;-81
2022/05/08 11:25:13;;;;;;;26.70;21.42;;;;;;;;;;5014365;28;20494;-82
2022/05/08 11:27:39;;;;;;;25.40;22.73;;;;;;;;;;5015308;28;20057;-80
2022/05/08 11:30:06;;;;;;;24.58;21.98;;;;;;;;;;5014826;28;20033;-81
2022/05/08 11:38:16;;;;;;;24.83;21.65;;;;;;;;;;5014440;28;20057;-80
2022/05/08 11:40:42;;;;;;;23.88;21.27;;;;;;;;;;5014027;28;20481;-81
2022/05/08 11:43:08;;;;;;;26.25;22.10;;;;;;;;;;5027844;28;20071;-81
2022/05/08 11:45:34;;;;;;;27.50;22.65;;;;;;;;;;5097031;28;20035;-81
2022/05/08 11:48:00;;;;;;;25.42;22.60;;;;;;;;;;5097253;28;20584;-81
2022/05/08 11:50:26;;;;;;;26.98;22.15;;;;;;;;;;5096638;28;20017;-81
2022/05/08 11:53:02;;;;;;;23.90;21.30;;;;;;;;;;5096291;28;20024;-81
2022/05/08 11:55:28;;;;;;;25.27;22.58;;;;;;;;;;5096070;28;20080;-81
2022/05/08 11:57:54;;;;;;;24.40;21.80;;;;;;;;;;5096737;28;20028;-80
2022/05/08 12:00:20;;;;;;;24.73;22.08;;;;;;;;;;5096455;28;20107;-80
2022/05/08 12:02:47;;;;;;;24.98;21.80;;;;;;;;;;5096318;28;20020;-81
2022/05/08 12:05:21;;;;;;;22.90;20.42;;;;;;;;;;5096717;28;20380;-81
2022/05/08 12:07:47;;;;;;;25.23;22.52;;;;;;;;;;5096026;28;20021;-81
2022/05/08 12:10:13;;;;;;;22.23;20.02;;;;;;;;;;5096043;28;20024;-82
2022/05/08 12:12:40;;;;;;;24.65;20.92;;;;;;;;;;5092940;28;20027;-80
2022/05/08 12:15:10;;;;;;;23.88;21.27;;;;;;;;;;5096060;28;20031;-81
2022/05/08 12:17:42;;;;;;;23.33;20.65;;;;;;;;;;5094558;28;20085;-82
2022/05/08 12:20:18;;;;;;;25.77;20.38;;;;;;;;;;5096051;28;20222;-81
2022/05/08 12:22:46;;;;;;;23.13;20.63;;;;;;;;;;5096268;28;20048;-80
2022/05/08 12:25:12;;;;;;;23.60;21.10;;;;;;;;;;5096000;28;20085;-82
2022/05/08 12:27:39;;;;;;;23.38;20.88;;;;;;;;;;5095558;28;20072;-81
2022/05/08 12:30:07;;;;;;;22.60;19.33;;;;;;;;;;5095744;28;20016;-80
2022/05/08 12:32:37;;;;;;;23.27;20.75;;;;;;;;;;5096530;28;20023;-80
2022/05/08 12:35:03;;;;;;;24.02;21.52;;;;;;;;;;5095636;28;20375;-81
2022/05/08 12:37:30;;;;;;;24.23;21.58;;;;;;;;;;5096315;28;20028;-81
2022/05/08 12:39:56;;;;;;;23.98;21.40;;;;;;;;;;5095275;28;20031;-81
2022/05/08 12:42:22;;;;;;;24.48;20.95;;;;;;;;;;5094647;28;20035;-81
2022/05/08 12:44:48;;;;;;;22.83;20.25;;;;;;;;;;5093857;28;20032;-80
2022/05/08 12:47:14;;;;;;;22.67;20.27;;;;;;;;;;5095790;28;20020;-81
2022/05/08 12:49:41;;;;;;;24.17;21.58;;;;;;;;;;5095860;28;20114;-81
2022/05/08 12:52:08;;;;;;;23.33;20.83;;;;;;;;;;5095317;28;20154;-80
2022/05/08 12:54:34;;;;;;;23.85;21.02;;;;;;;;;;5096402;28;20383;-80
2022/05/08 12:57:01;;;;;;;23.35;20.85;;;;;;;;;;5097451;28;20016;-81
2022/05/08 12:59:43;;;;;;;23.42;20.73;;;;;;;;;;5096391;28;20510;-81
2022/05/08 13:02:11;;;;;;;24.88;22.33;;;;;;;;;;5094035;28;20035;-80
2022/05/08 13:04:37;;;;;;;22.98;20.30;;;;;;;;;;5095047;28;20068;-81
2022/05/08 13:07:03;;;;;;;26.15;20.55;;;;;;;;;;5094806;28;20024;-81
2022/05/08 13:09:29;;;;;;;22.65;20.17;;;;;;;;;;5095542;28;20024;-81
2022/05/08 13:11:55;;;;;;;21.60;19.27;;;;;;;;;;5093698;28;20055;-81
2022/05/08 13:14:22;;;;;;;23.88;21.35;;;;;;;;;;5094630;28;20024;-81
2022/05/08 13:16:49;;;;;;;21.85;19.55;;;;;;;;;;5078277;28;20032;-80
2022/05/08 13:19:15;;;;;;;22.63;19.92;;;;;;;;;;5094864;28;20039;-80
2022/05/08 13:21:41;;;;;;;21.52;19.40;;;;;;;;;;5094962;28;20052;-81
2022/05/08 13:24:08;;;;;;;22.83;20.23;;;;;;;;;;5094841;28;20035;-82
2022/05/08 13:26:34;;;;;;;22.42;19.15;;;;;;;;;;5095922;28;20016;-81
2022/05/08 13:29:00;;;;;;;22.80;20.35;;;;;;;;;;5099094;28;20105;-80
2022/05/08 13:31:26;;;;;;;21.55;19.25;;;;;;;;;;5094500;28;21465;-80
2022/05/08 13:33:52;;;;;;;21.95;18.35;;;;;;;;;;5094858;28;20020;-81
2022/05/08 13:36:18;;;;;;;21.48;19.25;;;;;;;;;;5108567;28;20384;-81
2022/05/08 13:38:45;;;;;;;20.88;18.35;;;;;;;;;;5094479;28;20055;-80
2022/05/08 13:41:12;;;;;;;18.67;16.40;;;;;;;;;;5094452;28;20519;-80
2022/05/08 13:43:39;;;;;;;20.15;17.13;;;;;;;;;;5100800;28;20059;-81
2022/05/08 13:46:05;;;;;;;16.83;15.02;;;;;;;;;;5095882;28;20031;-82
2022/05/08 13:48:31;;;;;;;17.70;15.85;;;;;;;;;;5094706;28;20035;-81
2022/05/08 13:50:58;;;;;;;17.52;15.45;;;;;;;;;;5094860;28;20016;-82
2022/05/08 13:53:24;;;;;;;17.67;15.30;;;;;;;;;;5094983;28;20107;-82
2022/05/08 13:55:54;;;;;;;17.05;14.35;;;;;;;;;;5098107;28;20020;-81
2022/05/08 13:58:20;;;;;;;16.88;15.00;;;;;;;;;;5098697;28;20510;-81
2022/05/08 14:00:49;;;;;;;15.80;14.10;;;;;;;;;;5098931;28;20444;-81
2022/05/08 14:03:20;;;;;;;15.95;13.85;;;;;;;;;;5098977;28;20024;-81
2022/05/08 14:05:47;;;;;;;15.40;13.77;;;;;;;;;;5098682;28;20425;-81
2022/05/08 14:08:13;;;;;;;14.98;13.35;;;;;;;;;;5098739;28;20417;-81
2022/05/08 14:10:39;;;;;;;12.88;11.48;;;;;;;;;;5098996;28;20051;-81
2022/05/08 14:13:05;;;;;;;11.88;10.68;;;;;;;;;;5099236;28;20429;-81
2022/05/08 14:15:31;;;;;;;11.35;10.15;;;;;;;;;;5098676;28;20016;-81
2022/05/08 14:17:57;;;;;;;12.30;11.02;;;;;;;;;;5097786;28;20020;-82
2022/05/08 14:20:26;;;;;;;12.10;9.85;;;;;;;;;;5098811;28;20105;-80
2022/05/08 14:22:52;;;;;;;12.48;10.23;;;;;;;;;;5098806;28;20040;-80
2022/05/08 14:25:18;;;;;;;13.00;10.48;;;;;;;;;;5099013;28;20546;-81
2022/05/08 14:27:44;;;;;;;13.70;11.45;;;;;;;;;;5098504;28;20104;-82
2022/05/08 14:30:11;;;;;;;12.85;10.23;;;;;;;;;;5097208;28;20052;-81
2022/05/08 14:38:08;;;;;;;9.35;8.07;;;;;;;;;;5099208;28;20438;-81
2022/05/08 14:40:34;;;;;;;14.50;11.27;;;;;;;;;;5098504;28;20077;-81
2022/05/08 14:43:01;;;;;;;11.38;9.32;;;;;;;;;;5098141;28;20028;-81
2022/05/08 14:45:28;;;;;;;11.70;8.75;;;;;;;;;;5097793;28;20030;-81
2022/05/08 14:47:54;;;;;;;11.32;10.15;;;;;;;;;;5098467;28;20050;-81
2022/05/08 14:50:20;;;;;;;10.88;8.70;;;;;;;;;;5097985;28;22268;-81
2022/05/08 14:52:46;;;;;;;8.93;7.50;;;;;;;;;;5097990;28;20480;-82